Time;durP1;ratioP1;P1;durP2;ratioP2;P2;SDS_P1;SDS_P2;PMS_P1;PMS_P2;Temp;Humidity;BMP_temperature;BMP_pressure;BME280_temperature;BME280_humidity;BME280_pressure;Samples;Min_cycle;Max_cycle;Signal;HPM_P1;HPM_P2
2021/07/13 00:02:08;;;;;;;1.75;1.65;;;;;;;22.98;65.13;101085.69;5110811;27;20028;-74
2021/07/13 00:04:35;;;;;;;1.63;1.52;;;;;;;22.98;65.05;101083.03;5109062;27;20398;-73
2021/07/13 00:07:00;;;;;;;1.63;1.63;;;;;;;22.98;64.93;101096.31;5106527;27;20396;-74
2021/07/13 00:09:26;;;;;;;1.80;1.70;;;;;;;22.98;65.06;101095.47;5110920;27;20050;-74
2021/07/13 00:11:52;;;;;;;1.83;1.73;;;;;;;22.97;65.21;101083.19;5110317;27;20039;-74
2021/07/13 00:14:18;;;;;;;1.77;1.67;;;;;;;22.98;65.12;101092.81;5107796;27;20477;-74
2021/07/13 00:16:43;;;;;;;1.70;1.70;;;;;;;22.98;65.18;101084.84;5109313;27;20043;-74
2021/07/13 00:19:09;;;;;;;1.80;1.70;;;;;;;22.98;64.94;101090.16;5108796;27;20047;-74
2021/07/13 00:21:36;;;;;;;1.70;1.70;;;;;;;22.98;65.26;101090.16;5108958;27;20092;-74
2021/07/13 00:24:01;;;;;;;1.95;1.85;;;;;;;22.97;64.72;101097.28;5108480;27;20120;-74
2021/07/13 00:26:27;;;;;;;1.67;1.67;;;;;;;22.97;65.00;101093.81;5110260;27;20481;-74
2021/07/13 00:28:53;;;;;;;1.80;1.80;;;;;;;22.97;64.98;101094.63;5102139;27;20448;-74
2021/07/13 00:31:18;;;;;;;1.70;1.70;;;;;;;22.98;64.90;101095.47;5111740;27;20031;-74
2021/07/13 00:33:44;;;;;;;1.90;1.80;;;;;;;22.97;64.89;101091.16;5109189;27;20039;-74
2021/07/13 00:36:09;;;;;;;1.70;1.70;;;;;;;22.97;64.77;101091.16;5108936;27;20020;-74
2021/07/13 00:38:35;;;;;;;1.90;1.80;;;;;;;22.97;65.00;101084.00;5069751;28;20069;-74
2021/07/13 00:41:00;;;;;;;2.00;1.90;;;;;;;22.97;64.76;101078.69;5108186;28;20043;-74
2021/07/13 00:43:26;;;;;;;1.65;1.65;;;;;;;22.96;64.77;101070.94;5105311;28;20028;-73
2021/07/13 00:45:52;;;;;;;1.85;1.75;;;;;;;22.96;64.83;101071.75;5106850;28;20035;-74
2021/07/13 00:48:20;;;;;;;1.70;1.70;;;;;;;22.97;65.03;101064.59;5089583;28;20035;-74
2021/07/13 00:50:46;;;;;;;1.83;1.80;;;;;;;22.95;64.85;101058.66;5106626;28;20374;-74
2021/07/13 00:53:11;;;;;;;1.90;1.80;;;;;;;22.96;64.82;101060.31;5087579;28;20084;-73
2021/07/13 00:55:37;;;;;;;1.52;1.52;;;;;;;22.95;64.67;101059.50;5106161;28;20039;-74
2021/07/13 00:58:04;;;;;;;1.50;1.50;;;;;;;22.96;64.57;101060.31;5104916;28;20039;-74
2021/07/13 01:00:31;;;;;;;1.60;1.60;;;;;;;22.95;64.65;101054.19;5105427;28;20131;-73
2021/07/13 01:03:01;;;;;;;1.50;1.50;;;;;;;22.95;64.49;101061.31;5102802;28;20051;-74
2021/07/13 01:05:29;;;;;;;;;;;;;;;22.94;64.83;101047.22;5090413;28;20036;-74
2021/07/13 01:08:28;;;;;;;1.77;1.70;;;;;;;22.95;64.88;101054.19;5104101;28;19990;-74
2021/07/13 01:11:07;;;;;;;1.70;1.70;;;;;;;22.94;64.94;101051.72;5104952;28;20512;-74
2021/07/13 01:14:07;;;;;;;1.60;1.60;;;;;;;22.94;64.57;101043.75;5105170;28;20046;-74
2021/07/13 01:17:00;;;;;;;1.73;1.73;;;;;;;22.92;64.63;101046.59;5105499;28;20736;-74
2021/07/13 01:19:29;;;;;;;1.70;1.60;;;;;;;22.92;64.65;101043.94;5104287;28;20161;-74
2021/07/13 01:21:58;;;;;;;1.50;1.50;;;;;;;22.92;64.91;101039.47;5105166;28;20076;-73
2021/07/13 01:25:00;;;;;;;1.50;1.50;;;;;;;22.92;64.70;101043.94;5105935;28;20035;-74
2021/07/13 01:27:46;;;;;;;1.50;1.50;;;;;;;22.92;64.85;101051.91;5104769;28;20640;-74
2021/07/13 01:30:19;;;;;;;1.75;1.70;;;;;;;22.93;64.48;101053.56;5106616;28;20040;-74
2021/07/13 01:32:49;;;;;;;1.77;1.67;;;;;;;22.92;64.47;101062.53;5088252;28;20038;-74
2021/07/13 01:35:29;;;;;;;1.75;1.65;;;;;;;22.91;64.95;101067.03;5102333;28;20056;-74
2021/07/13 01:37:57;;;;;;;1.75;1.65;;;;;;;22.91;64.89;101068.88;5105555;28;20075;-74
2021/07/13 01:40:26;;;;;;;1.60;1.60;;;;;;;22.91;64.67;101063.56;5106365;28;20075;-74
2021/07/13 01:42:53;;;;;;;1.60;1.60;;;;;;;22.90;64.81;101062.72;5104937;28;20028;-74
2021/07/13 01:45:19;;;;;;;1.35;1.35;;;;;;;22.89;64.60;101062.94;5102458;28;20039;-74
2021/07/13 01:47:45;;;;;;;1.42;1.42;;;;;;;22.89;64.65;101060.28;5106578;28;20035;-73
2021/07/13 01:50:12;;;;;;;1.40;1.40;;;;;;;22.89;64.62;101069.06;5105818;28;20061;-74
2021/07/13 01:52:40;;;;;;;1.50;1.50;;;;;;;22.89;64.71;101071.72;5105371;28;20063;-74
2021/07/13 01:55:06;;;;;;;1.30;1.30;;;;;;;22.89;64.95;101076.22;5105306;28;20033;-74
2021/07/13 01:57:33;;;;;;;1.50;1.50;;;;;;;22.89;64.54;101077.03;5106588;28;20110;-73
2021/07/13 02:00:08;;;;;;;1.60;1.50;;;;;;;22.89;64.65;101073.56;5100638;28;20054;-73
2021/07/13 02:02:39;;;;;;;1.38;1.38;;;;;;;22.88;64.77;101077.22;5106407;28;20044;-74
2021/07/13 02:05:07;;;;;;;1.50;1.50;;;;;;;22.86;64.43;101082.72;5101256;28;20110;-74
2021/07/13 02:07:36;;;;;;;0.98;0.98;;;;;;;22.87;64.72;101087.03;5105641;28;20031;-74
2021/07/13 02:10:05;;;;;;;1.40;1.40;;;;;;;22.87;64.89;101083.56;5104384;28;20123;-74
2021/07/13 02:12:32;;;;;;;1.40;1.40;;;;;;;22.87;64.48;101088.84;5085508;28;20096;-74
2021/07/13 02:14:57;;;;;;;1.20;1.20;;;;;;;22.87;64.51;101094.16;5085178;28;20476;-74
2021/07/13 02:17:25;;;;;;;1.30;1.30;;;;;;;22.85;64.71;101085.59;5103496;28;20052;-73
2021/07/13 02:19:50;;;;;;;1.27;1.27;;;;;;;22.87;64.58;101088.84;5086995;28;20035;-73
2021/07/13 02:22:16;;;;;;;1.20;1.20;;;;;;;22.85;64.80;101088.25;5086932;28;20035;-74
2021/07/13 02:24:42;;;;;;;1.42;1.40;;;;;;;22.85;64.64;101091.72;5103630;28;20031;-74
2021/07/13 02:27:14;;;;;;;1.10;1.10;;;;;;;22.85;64.74;101086.41;5086755;28;20039;-74
2021/07/13 02:29:44;;;;;;;1.10;1.10;;;;;;;22.85;64.58;101082.94;5105925;28;20043;-74
2021/07/13 02:32:15;;;;;;;1.10;1.10;;;;;;;22.86;64.79;101084.56;5075944;28;20047;-74
2021/07/13 02:34:43;;;;;;;1.00;1.00;;;;;;;22.85;64.56;101080.28;5088010;28;20123;-74
2021/07/13 02:37:13;;;;;;;1.20;1.20;;;;;;;22.84;65.00;101073.31;5103851;28;20080;-74
2021/07/13 02:39:40;;;;;;;1.02;1.02;;;;;;;22.84;64.80;101073.31;5104820;28;20113;-74
2021/07/13 02:42:07;;;;;;;1.23;1.23;;;;;;;22.84;64.76;101062.69;5103178;28;20096;-74
2021/07/13 02:44:34;;;;;;;1.00;1.00;;;;;;;22.84;64.50;101068.00;5104910;28;20040;-74
2021/07/13 02:47:05;;;;;;;1.00;1.00;;;;;;;22.84;64.46;101065.34;5102708;28;20039;-74
2021/07/13 02:49:33;;;;;;;1.02;1.02;;;;;;;22.83;64.78;101053.91;5104350;28;20031;-74
2021/07/13 02:52:01;;;;;;;1.10;1.10;;;;;;;22.83;64.45;101056.56;5101985;28;20057;-74
2021/07/13 02:54:29;;;;;;;0.90;0.90;;;;;;;22.82;64.55;101046.97;5103708;28;20040;-74
2021/07/13 02:56:58;;;;;;;1.00;1.00;;;;;;;22.82;64.68;101052.28;5104097;28;20561;-74
2021/07/13 02:59:27;;;;;;;1.00;1.00;;;;;;;22.82;64.56;101052.28;5088748;28;20144;-74
2021/07/13 03:01:52;;;;;;;1.30;1.30;;;;;;;;;;5098720;28;20471;-74
2021/07/13 03:04:19;;;;;;;1.08;1.08;;;;;;;;;;5102984;28;20560;-74
2021/07/13 03:06:44;;;;;;;1.00;1.00;;;;;;;;;;5104040;28;20051;-74
2021/07/13 03:09:12;;;;;;;1.00;1.00;;;;;;;22.82;64.78;101027.56;5103546;28;21393;-74
2021/07/13 03:11:37;;;;;;;0.98;0.98;;;;;;;22.80;64.39;101021.56;5104006;28;20038;-74
2021/07/13 03:14:05;;;;;;;0.80;0.80;;;;;;;22.80;64.43;101016.25;5101678;28;20853;-74
2021/07/13 03:16:36;;;;;;;0.90;0.90;;;;;;;22.79;64.51;101006.66;5103708;28;20517;-74
2021/07/13 03:19:03;;;;;;;1.05;1.05;;;;;;;22.80;64.66;101002.97;5105317;28;20027;-73
2021/07/13 03:21:32;;;;;;;1.10;1.10;;;;;;;22.79;64.49;100999.50;5102523;28;20043;-74
2021/07/13 03:24:01;;;;;;;1.00;1.00;;;;;;;22.79;64.66;101001.34;5105419;28;20040;-74
2021/07/13 03:26:32;;;;;;;1.00;1.00;;;;;;;22.80;64.68;101005.63;5103565;28;20051;-74
2021/07/13 03:28:59;;;;;;;0.70;0.70;;;;;;;22.79;64.38;101001.34;5102143;28;20432;-74
2021/07/13 03:31:26;;;;;;;0.80;0.80;;;;;;;22.79;64.70;101002.16;5103798;28;20027;-73
2021/07/13 03:33:54;;;;;;;1.00;1.00;;;;;;;22.80;64.40;101005.63;5102660;28;20027;-73
2021/07/13 03:36:20;;;;;;;1.02;1.02;;;;;;;22.79;64.29;100998.69;5068055;28;20039;-73
2021/07/13 03:38:48;;;;;;;0.77;0.77;;;;;;;22.79;64.63;100996.84;5103002;28;20553;-74
2021/07/13 03:41:14;;;;;;;1.20;1.20;;;;;;;22.79;64.78;100999.50;5102428;28;20059;-74
2021/07/13 03:43:39;;;;;;;0.80;0.80;;;;;;;22.79;64.59;100998.69;5105237;28;20037;-74
2021/07/13 03:46:05;;;;;;;0.80;0.80;;;;;;;22.79;64.41;100996.03;5102944;28;20039;-74
2021/07/13 03:48:31;;;;;;;0.88;0.88;;;;;;;22.79;64.25;101001.34;5101481;28;20036;-74
2021/07/13 03:50:56;;;;;;;0.70;0.70;;;;;;;22.79;64.47;100996.84;5104724;28;20047;-74
2021/07/13 03:53:22;;;;;;;0.70;0.70;;;;;;;22.79;64.26;100994.19;5104040;28;20031;-74
2021/07/13 03:55:47;;;;;;;1.00;1.00;;;;;;;22.79;64.56;101004.00;5085863;28;20690;-73
2021/07/13 03:58:13;;;;;;;0.80;0.80;;;;;;;22.79;64.48;100999.50;5102875;28;20028;-74
2021/07/13 04:00:39;;;;;;;0.80;0.80;;;;;;;22.79;64.36;101007.47;5086403;28;20043;-73
2021/07/13 04:03:04;;;;;;;0.80;0.80;;;;;;;22.78;64.67;101005.00;5100490;28;20036;-74
2021/07/13 04:05:30;;;;;;;0.80;0.80;;;;;;;22.79;64.36;100996.84;5084633;28;20044;-74
2021/07/13 04:07:55;;;;;;;0.60;0.60;;;;;;;22.80;64.16;101001.19;5107804;28;20039;-74
2021/07/13 04:10:21;;;;;;;0.80;0.80;;;;;;;22.79;64.34;100998.69;5104572;28;20037;-73
2021/07/13 04:12:47;;;;;;;0.57;0.57;;;;;;;22.80;64.34;100998.53;5107993;28;20039;-74
2021/07/13 04:15:13;;;;;;;0.70;0.70;;;;;;;22.82;64.01;100998.34;5107227;28;20043;-73
2021/07/13 04:17:41;;;;;;;0.60;0.60;;;;;;;22.82;64.08;101012.44;5108109;28;20089;-74
2021/07/13 04:20:08;;;;;;;1.00;1.00;;;;;;;22.83;64.08;101015.94;5070300;28;20047;-73
2021/07/13 04:22:34;;;;;;;0.60;0.60;;;;;;;22.83;64.01;101015.94;5106264;28;20040;-74
2021/07/13 04:25:00;;;;;;;0.70;0.70;;;;;;;22.83;64.20;101024.72;5088766;28;20051;-74
2021/07/13 04:27:26;;;;;;;0.80;0.80;;;;;;;22.84;64.30;101022.88;5103652;28;20086;-74
2021/07/13 04:29:52;;;;;;;0.70;0.70;;;;;;;22.83;63.99;101023.88;5103712;28;20040;-74
2021/07/13 04:32:18;;;;;;;0.80;0.80;;;;;;;22.83;64.13;101029.19;5104967;28;20036;-74
2021/07/13 04:34:44;;;;;;;0.70;0.70;;;;;;;22.83;64.34;101027.38;5106564;28;20045;-73
2021/07/13 04:37:09;;;;;;;0.60;0.60;;;;;;;22.83;64.25;101018.56;5087947;28;20150;-73
2021/07/13 04:39:35;;;;;;;0.63;0.63;;;;;;;22.84;64.26;101026.34;5107607;28;20514;-74
2021/07/13 04:42:00;;;;;;;0.65;0.65;;;;;;;22.83;64.07;101032.69;5087111;28;20702;-74
2021/07/13 04:44:26;;;;;;;0.80;0.80;;;;;;;22.84;64.00;101039.63;5088561;28;20381;-74
2021/07/13 04:46:53;;;;;;;0.70;0.70;;;;;;;22.83;64.30;101032.69;5105772;28;20039;-74
2021/07/13 04:49:19;;;;;;;0.80;0.80;;;;;;;22.84;63.97;101036.16;5106686;28;20036;-74
2021/07/13 04:51:44;;;;;;;0.63;0.63;;;;;;;22.83;64.20;101043.28;5104601;28;20032;-74
2021/07/13 04:54:10;;;;;;;0.70;0.70;;;;;;;22.83;64.35;101045.13;5085551;28;20086;-73
2021/07/13 04:56:35;;;;;;;0.70;0.70;;;;;;;22.82;64.05;101046.97;5101699;28;20040;-74
2021/07/13 04:59:01;;;;;;;0.57;0.57;;;;;;;22.83;63.90;101053.91;5108792;28;20081;-74
2021/07/13 05:01:27;;;;;;;0.80;0.80;;;;;;;22.83;64.05;101048.59;5102480;28;20489;-74
2021/07/13 05:03:54;;;;;;;0.65;0.65;;;;;;;22.83;63.89;101047.78;5089638;28;20070;-74
2021/07/13 05:06:19;;;;;;;0.63;0.63;;;;;;;22.83;64.26;101048.59;5104674;28;20131;-74
2021/07/13 05:08:46;;;;;;;0.60;0.60;;;;;;;22.84;64.07;101057.38;5088874;28;20073;-74
2021/07/13 05:11:11;;;;;;;0.68;0.68;;;;;;;22.84;64.24;101065.34;5106504;28;20047;-74
2021/07/13 05:13:37;;;;;;;0.50;0.50;;;;;;;22.85;63.98;101059.03;5106126;28;20031;-74
2021/07/13 05:16:03;;;;;;;0.55;0.55;;;;;;;22.86;64.24;101058.00;5081555;28;20085;-74
2021/07/13 05:18:29;;;;;;;0.60;0.60;;;;;;;22.86;64.11;101058.00;5103816;28;20119;-74
2021/07/13 05:20:58;;;;;;;0.80;0.80;;;;;;;22.86;63.86;101058.00;5099524;28;20043;-74
2021/07/13 05:23:24;;;;;;;0.40;0.40;;;;;;;22.87;63.98;101057.00;5083574;28;20035;-74
2021/07/13 05:25:50;;;;;;;0.50;0.50;;;;;;;22.87;64.03;101060.47;5104911;28;20059;-74
2021/07/13 05:28:16;;;;;;;0.70;0.70;;;;;;;22.87;64.05;101063.13;5100145;28;20139;-74
2021/07/13 05:30:43;;;;;;;0.55;0.55;;;;;;;22.89;64.17;101060.28;5092421;28;20097;-74
2021/07/13 05:33:10;;;;;;;0.50;0.50;;;;;;;22.89;63.85;101061.09;5097066;28;20046;-74
2021/07/13 05:35:35;;;;;;;0.47;0.47;;;;;;;22.90;64.10;101064.56;5104466;28;20404;-73
2021/07/13 05:38:01;;;;;;;0.55;0.55;;;;;;;22.90;63.99;101062.72;5098147;28;20040;-75
2021/07/13 05:40:27;;;;;;;0.45;0.45;;;;;;;22.90;63.78;101062.72;5105072;28;20031;-74
2021/07/13 05:42:53;;;;;;;0.60;0.60;;;;;;;22.90;63.92;101060.06;5089098;28;20092;-74
2021/07/13 05:45:19;;;;;;;0.77;0.77;;;;;;;22.91;64.04;101052.94;5095673;28;20076;-74
2021/07/13 05:47:44;;;;;;;0.70;0.70;;;;;;;22.91;63.85;101052.94;5089154;28;20124;-73
2021/07/13 05:50:11;;;;;;;0.60;0.60;;;;;;;22.92;63.74;101049.25;5106848;28;20845;-74
2021/07/13 05:52:37;;;;;;;0.50;0.50;;;;;;;22.91;63.76;101059.06;5103779;28;20051;-74
2021/07/13 05:55:04;;;;;;;0.50;0.50;;;;;;;22.93;63.54;101058.88;5106108;28;20095;-74
2021/07/13 05:57:29;;;;;;;0.50;0.50;;;;;;;22.94;63.91;101062.34;5102685;28;20035;-74
2021/07/13 05:59:55;;;;;;;0.93;0.68;;;;;;;22.94;63.56;101057.84;5104650;28;20028;-74
2021/07/13 06:02:21;;;;;;;0.57;0.57;;;;;;;22.94;63.87;101057.84;5103562;28;20043;-74
2021/07/13 06:04:46;;;;;;;0.60;0.60;;;;;;;22.96;63.56;101060.31;5101417;28;20031;-74
2021/07/13 06:07:12;;;;;;;0.70;0.70;;;;;;;22.96;63.79;101066.44;5085724;28;20041;-73
2021/07/13 06:09:38;;;;;;;0.60;0.60;;;;;;;22.97;63.61;101064.59;5107377;28;20035;-74
2021/07/13 06:12:04;;;;;;;0.50;0.50;;;;;;;22.96;63.51;101062.97;5098012;28;20053;-74
2021/07/13 06:14:29;;;;;;;0.50;0.50;;;;;;;22.97;63.85;101059.28;5103756;28;20085;-73
2021/07/13 06:16:55;;;;;;;0.60;0.60;;;;;;;22.99;63.87;101062.59;5105003;28;20031;-74
2021/07/13 06:19:21;;;;;;;0.50;0.50;;;;;;;22.98;63.85;101063.59;5103897;28;20047;-74
2021/07/13 06:21:47;;;;;;;0.68;0.68;;;;;;;23.03;63.92;101062.00;5086368;28;20040;-67
2021/07/13 06:24:13;;;;;;;0.70;0.70;;;;;;;22.72;65.87;101058.91;5103879;28;20035;-67
2021/07/13 06:26:38;;;;;;;0.50;0.50;;;;;;;22.72;66.41;101061.56;5102659;28;20085;-67
2021/07/13 06:29:04;;;;;;;0.75;0.75;;;;;;;22.58;67.67;101061.44;5106258;28;20036;-67
2021/07/13 06:31:30;;;;;;;0.70;0.70;;;;;;;22.58;67.49;101066.75;5101693;28;20092;-68
2021/07/13 06:33:56;;;;;;;1.25;1.25;;;;;;;22.53;68.16;101063.84;5104308;28;20054;-67
2021/07/13 06:36:21;;;;;;;1.25;1.25;;;;;;;22.55;68.92;101064.47;5101267;28;20089;-67
2021/07/13 06:38:47;;;;;;;0.90;0.90;;;;;;;22.53;69.00;101065.69;5080681;28;20092;-70
2021/07/13 06:41:12;;;;;;;1.05;1.05;;;;;;;22.64;68.25;101056.41;5078427;28;20521;-68
2021/07/13 06:43:38;;;;;;;1.02;1.02;;;;;;;22.67;68.31;101063.97;5099831;28;20035;-68
2021/07/13 06:46:04;;;;;;;0.88;0.88;;;;;;;22.68;68.41;101069.09;5105629;28;20042;-68
2021/07/13 06:48:30;;;;;;;0.90;0.90;;;;;;;22.64;68.57;101067.03;5101259;28;20740;-68
2021/07/13 06:50:55;;;;;;;1.10;1.10;;;;;;;22.66;69.12;101071.13;5103519;28;20167;-68
2021/07/13 06:53:21;;;;;;;1.13;1.13;;;;;;;22.65;68.96;101064.16;5101937;28;20063;-68
2021/07/13 06:55:47;;;;;;;1.13;1.10;;;;;;;22.63;69.20;101074.16;5104085;28;20035;-68
2021/07/13 06:58:12;;;;;;;0.85;0.85;;;;;;;22.56;70.06;101073.25;5102581;28;20539;-68
2021/07/13 07:00:38;;;;;;;0.98;0.98;;;;;;;22.51;70.55;101081.81;5104579;28;20027;-67
2021/07/13 07:03:04;;;;;;;1.08;1.08;;;;;;;22.52;70.88;101083.44;5103524;28;20039;-68
2021/07/13 07:05:29;;;;;;;1.00;1.00;;;;;;;22.51;70.66;101086.28;5103557;28;20040;-68
2021/07/13 07:07:55;;;;;;;0.98;0.98;;;;;;;22.47;71.17;101090.34;5104228;28;20430;-69
2021/07/13 07:10:21;;;;;;;0.85;0.85;;;;;;;22.53;70.78;101081.63;5104209;28;20043;-68
2021/07/13 07:12:49;;;;;;;1.05;1.05;;;;;;;22.51;70.94;101084.47;5104023;28;20031;-68
2021/07/13 07:15:15;;;;;;;0.85;0.85;;;;;;;22.54;70.16;101076.13;5103314;28;20176;-68
2021/07/13 07:17:46;;;;;;;0.80;0.80;;;;;;;22.55;70.31;101080.41;5104440;28;20043;-67
2021/07/13 07:20:13;;;;;;;1.13;1.13;;;;;;;22.48;70.67;101079.53;5105160;28;20086;-68
2021/07/13 07:22:39;;;;;;;1.05;1.05;;;;;;;22.54;70.65;101088.56;5102511;28;20674;-68
2021/07/13 07:25:05;;;;;;;1.05;1.05;;;;;;;22.60;70.32;101087.78;5102799;28;20055;-67
2021/07/13 07:27:31;;;;;;;1.00;1.00;;;;;;;22.64;70.13;101088.25;5104661;28;20039;-67
2021/07/13 07:29:57;;;;;;;0.93;0.93;;;;;;;22.63;70.57;101094.56;5104720;28;20512;-68
2021/07/13 07:32:22;;;;;;;0.80;0.80;;;;;;;22.61;71.10;101090.25;5085262;28;20043;-68
2021/07/13 07:34:48;;;;;;;0.82;0.82;;;;;;;22.66;70.25;101095.00;5085542;28;20038;-68
2021/07/13 07:37:13;;;;;;;1.48;0.90;;;;;;;22.57;70.83;101098.78;5103155;28;20444;-68
2021/07/13 07:39:41;;;;;;;0.90;0.90;;;;;;;22.69;70.92;101094.63;5084033;28;20390;-64
2021/07/13 07:42:07;;;;;;;0.88;0.88;;;;;;;22.80;70.02;101091.44;5076379;28;20562;-63
2021/07/13 07:44:33;;;;;;;0.65;0.65;;;;;;;23.02;68.87;101094.06;5098614;28;20039;-64
2021/07/13 07:46:58;;;;;;;0.73;0.73;;;;;;;22.99;69.24;101094.47;5106795;28;20066;-64
2021/07/13 07:49:24;;;;;;;0.70;0.70;;;;;;;23.05;69.79;101089.19;5089723;28;20044;-66
2021/07/13 07:51:50;;;;;;;0.75;0.75;;;;;;;23.33;67.83;101090.97;5105246;28;20031;-63
2021/07/13 07:54:15;;;;;;;1.00;0.90;;;;;;;23.25;68.36;101091.16;5106519;28;20054;-64
2021/07/13 07:56:41;;;;;;;0.73;0.73;;;;;;;23.56;67.24;101098.66;5071215;28;20031;-65
2021/07/13 07:59:06;;;;;;;0.60;0.60;;;;;;;23.37;68.05;101100.22;5096885;28;20055;-64
2021/07/13 08:01:32;;;;;;;0.68;0.68;;;;;;;23.18;68.52;101107.06;5089201;28;20043;-64
2021/07/13 08:03:57;;;;;;;0.70;0.70;;;;;;;23.05;69.02;101099.81;5078956;28;20057;-63
2021/07/13 08:06:23;;;;;;;0.70;0.70;;;;;;;23.11;68.97;101100.88;5095060;28;20050;-63
2021/07/13 08:08:49;;;;;;;0.77;0.77;;;;;;;23.09;68.97;101100.25;5089866;28;20088;-63
2021/07/13 08:11:14;;;;;;;0.40;0.40;;;;;;;23.07;69.08;101102.28;5106444;28;20431;-63
2021/07/13 08:13:40;;;;;;;0.50;0.50;;;;;;;23.13;68.98;101096.16;5077860;28;20058;-64
2021/07/13 08:16:05;;;;;;;0.52;0.52;;;;;;;23.03;69.22;101101.03;5104758;28;20123;-63
2021/07/13 08:18:31;;;;;;;0.60;0.60;;;;;;;22.97;69.36;101099.13;5080002;28;20077;-64
2021/07/13 08:20:59;;;;;;;0.90;0.90;;;;;;;22.99;69.70;101099.78;5103716;28;20038;-64
2021/07/13 08:23:24;;;;;;;0.47;0.47;;;;;;;23.04;69.14;101097.34;5080923;28;20059;-63
2021/07/13 08:25:50;;;;;;;0.73;0.73;;;;;;;23.13;68.78;101098.81;5107128;28;20689;-63
2021/07/13 08:28:15;;;;;;;0.52;0.52;;;;;;;23.15;68.93;101100.28;5070947;28;20039;-64
2021/07/13 08:30:41;;;;;;;0.57;0.57;;;;;;;23.18;68.96;101097.25;5095292;28;20047;-64
2021/07/13 08:33:06;;;;;;;0.50;0.50;;;;;;;23.10;69.10;101102.69;5073704;28;20922;-66
2021/07/13 08:35:32;;;;;;;0.65;0.65;;;;;;;23.17;68.54;101097.44;5105992;28;20473;-64
2021/07/13 08:37:58;;;;;;;0.50;0.50;;;;;;;23.29;68.64;101098.53;5090066;28;20542;-64
2021/07/13 08:40:24;;;;;;;0.65;0.65;;;;;;;23.29;68.52;101095.03;5096845;28;20059;-65
2021/07/13 08:42:50;;;;;;;0.60;0.60;;;;;;;23.26;69.36;101090.94;5095019;28;20049;-64
2021/07/13 08:45:18;;;;;;;0.80;0.80;;;;;;;23.19;69.73;101098.06;5060691;28;20031;-67
2021/07/13 08:47:45;;;;;;;0.70;0.70;;;;;;;23.63;67.82;101092.38;5105431;28;20495;-67
2021/07/13 08:50:14;;;;;;;0.90;0.80;;;;;;;24.10;66.02;101086.19;5080240;28;21568;-66
2021/07/13 08:52:39;;;;;;;0.80;0.80;;;;;;;23.75;67.28;101098.78;5106060;28;20473;-67
2021/07/13 08:55:08;;;;;;;0.55;0.50;;;;;;;23.75;67.53;101084.66;5079026;28;20028;-65
2021/07/13 08:57:36;;;;;;;0.50;0.50;;;;;;;23.77;67.42;101080.78;5105649;28;20519;-65
2021/07/13 09:00:01;;;;;;;0.50;0.50;;;;;;;23.33;68.90;101083.00;5076891;28;20092;-66
2021/07/13 09:02:27;;;;;;;1.00;0.63;;;;;;;23.42;69.07;101085.31;5101633;28;20031;-65
2021/07/13 09:04:52;;;;;;;0.60;0.60;;;;;;;23.49;68.61;101088.81;5080320;28;20031;-68
2021/07/13 09:07:18;;;;;;;0.50;0.50;;;;;;;23.29;69.38;101076.44;5100497;28;20043;-66
2021/07/13 09:09:47;;;;;;;0.50;0.50;;;;;;;23.49;68.43;101075.50;5060010;27;20047;-65
2021/07/13 09:12:17;;;;;;;0.60;0.60;;;;;;;23.34;69.04;101074.84;5086830;28;20035;-63
2021/07/13 09:14:57;;;;;;;0.60;0.60;;;;;;;23.35;69.25;101070.38;5080387;28;20065;-67
2021/07/13 09:17:32;;;;;;;0.35;0.35;;;;;;;23.44;69.39;101071.81;5077442;28;20048;-67
2021/07/13 09:20:09;;;;;;;0.40;0.40;;;;;;;23.45;69.19;101074.28;5104528;28;20043;-65
2021/07/13 09:22:56;;;;;;;0.50;0.50;;;;;;;23.47;68.95;101074.91;5087237;28;20035;-66
2021/07/13 09:25:24;;;;;;;0.40;0.40;;;;;;;23.45;69.32;101076.13;5075029;28;20058;-65
2021/07/13 09:28:15;;;;;;;0.50;0.50;;;;;;;23.56;68.93;101075.56;5078543;28;20762;-66
2021/07/13 09:30:46;;;;;;;0.45;0.45;;;;;;;23.38;69.50;101084.06;5015733;28;20051;-66
2021/07/13 09:33:14;;;;;;;0.40;0.40;;;;;;;23.37;69.61;101086.94;5095802;28;20042;-65
2021/07/13 09:35:57;;;;;;;0.38;0.38;;;;;;;23.43;69.41;101086.94;5057894;28;20027;-67
2021/07/13 09:38:24;;;;;;;0.47;0.47;;;;;;;23.43;69.50;101080.81;5076242;28;20032;-66
2021/07/13 09:40:49;;;;;;;0.30;0.30;;;;;;;23.38;69.71;101085.91;5079060;27;20111;-63
2021/07/13 09:43:20;;;;;;;0.30;0.30;;;;;;;23.31;69.74;101082.38;5079586;28;20496;-66
2021/07/13 09:45:45;;;;;;;0.40;0.40;;;;;;;23.33;70.14;101085.66;5079392;28;20492;-65
2021/07/13 09:48:12;;;;;;;0.68;0.55;;;;;;;23.34;70.14;101084.63;5062274;28;20039;-63
2021/07/13 09:50:51;;;;;;;0.50;0.50;;;;;;;23.41;70.01;101088.16;5105325;28;20040;-66
2021/07/13 09:53:19;;;;;;;0.47;0.47;;;;;;;23.35;70.53;101087.13;5075697;28;20109;-64
2021/07/13 09:55:46;;;;;;;0.60;0.60;;;;;;;23.51;69.52;101088.59;5076341;28;20495;-65
2021/07/13 09:58:21;;;;;;;0.45;0.45;;;;;;;23.71;68.47;101086.09;5079070;28;20047;-64
2021/07/13 10:00:57;;;;;;;0.50;0.50;;;;;;;23.51;69.90;101089.44;5101450;28;20054;-63
2021/07/13 10:03:23;;;;;;;0.95;0.65;;;;;;;23.56;69.36;101093.34;5068431;28;20055;-63
2021/07/13 10:05:51;;;;;;;0.43;0.43;;;;;;;23.56;68.95;101093.34;5102568;28;20031;-64
2021/07/13 10:08:18;;;;;;;0.40;0.40;;;;;;;23.52;69.20;101092.94;5076518;28;20857;-63
2021/07/13 10:10:46;;;;;;;0.20;0.20;;;;;;;23.52;69.00;101093.75;5062943;28;20078;-65
2021/07/13 10:13:14;;;;;;;0.50;0.40;;;;;;;23.58;69.32;101094.81;5078861;28;20082;-64
2021/07/13 10:15:40;;;;;;;0.57;0.30;;;;;;;23.49;69.46;101095.97;5080687;28;20047;-64
2021/07/13 10:18:07;;;;;;;0.57;0.55;;;;;;;23.42;69.91;101095.94;5067375;28;20395;-64
2021/07/13 10:20:34;;;;;;;0.40;0.40;;;;;;;23.62;69.56;101098.72;5079929;28;20934;-64
2021/07/13 10:23:06;;;;;;;0.75;0.40;;;;;;;23.50;69.71;101102.91;5085957;27;20065;-65
2021/07/13 10:25:39;;;;;;;0.55;0.50;;;;;;;23.33;70.01;101099.75;5104886;28;20081;-64
2021/07/13 10:28:06;;;;;;;0.65;0.50;;;;;;;23.31;70.22;101107.13;5080307;28;20075;-68
2021/07/13 10:30:32;;;;;;;0.45;0.38;;;;;;;23.41;69.81;101104.94;5080221;28;20076;-67
2021/07/13 10:32:58;;;;;;;0.40;0.40;;;;;;;23.55;68.92;101105.00;5087814;27;20039;-68
2021/07/13 10:35:27;;;;;;;0.45;0.45;;;;;;;23.61;68.84;101104.22;5094776;28;20047;-68
2021/07/13 10:38:20;;;;;;;0.50;0.50;;;;;;;23.62;68.90;101104.03;5093767;28;20031;-67
2021/07/13 10:40:48;;;;;;;0.63;0.63;;;;;;;23.56;69.41;101110.13;5104807;28;20377;-68
2021/07/13 10:43:17;;;;;;;0.40;0.40;;;;;;;23.41;69.61;101109.44;5059083;28;20214;-68
2021/07/13 10:45:43;;;;;;;2.42;0.45;;;;;;;23.26;70.42;101109.53;5104090;28;20032;-68
2021/07/13 10:48:14;;;;;;;0.60;0.60;;;;;;;23.31;69.89;101112.44;5077029;28;20825;-68
2021/07/13 10:50:57;;;;;;;0.50;0.50;;;;;;;23.37;70.17;101110.84;5093012;28;20050;-68
2021/07/13 10:53:28;;;;;;;0.52;0.52;;;;;;;23.33;70.18;101121.03;5102667;28;20504;-68
2021/07/13 10:55:56;;;;;;;0.40;0.40;;;;;;;23.40;70.06;101110.44;5077247;28;20513;-68
2021/07/13 10:58:27;;;;;;;0.68;0.68;;;;;;;23.45;69.69;101114.16;5101328;28;20043;-67
2021/07/13 11:01:00;;;;;;;0.60;0.60;;;;;;;23.36;70.45;101123.31;5060838;28;20482;-69
2021/07/13 11:03:31;;;;;;;0.50;0.50;;;;;;;23.34;70.62;101116.53;5102558;28;20032;-65
2021/07/13 11:06:00;;;;;;;0.50;0.50;;;;;;;23.40;70.33;101123.72;5066047;28;20043;-67
2021/07/13 11:11:29;;;;;;;0.52;0.52;;;;;;;23.49;69.40;101131.34;5071586;28;20168;-67
2021/07/13 11:13:57;;;;;;;0.50;0.50;;;;;;;23.55;69.04;101123.63;5102812;28;20086;-67
2021/07/13 11:16:26;;;;;;;0.47;0.47;;;;;;;23.49;69.44;101130.50;5070212;28;20039;-67
2021/07/13 11:18:53;;;;;;;0.40;0.40;;;;;;;23.39;69.77;101127.41;5101481;28;20027;-67
2021/07/13 11:21:25;;;;;;;0.40;0.40;;;;;;;23.47;69.37;101135.22;5077561;28;20031;-66
2021/07/13 11:23:56;;;;;;;0.40;0.40;;;;;;;23.57;68.90;101127.75;5100825;28;20043;-67
2021/07/13 11:26:24;;;;;;;0.88;0.50;;;;;;;23.65;68.65;101134.72;5071683;28;20048;-66
2021/07/13 11:28:55;;;;;;;0.40;0.40;;;;;;;23.63;68.68;101131.44;5082304;28;20075;-66
2021/07/13 11:31:31;;;;;;;0.40;0.40;;;;;;;23.59;68.71;101140.84;5042233;28;20565;-68
2021/07/13 11:33:59;;;;;;;0.50;0.50;;;;;;;23.60;68.92;101129.19;5093216;28;20067;-68